Time;durP1;ratioP1;P1;durP2;ratioP2;P2;SDS_P1;SDS_P2;PMS_P1;PMS_P2;Temp;Humidity;BMP_temperature;BMP_pressure;BME280_temperature;BME280_humidity;BME280_pressure;Samples;Min_cycle;Max_cycle;Signal;HPM_P1;HPM_P2
2023/08/29 00:01:30;;;;;;;20.88;10.70;;;;;;;;;;5051663;28;20083;-66
2023/08/29 00:03:58;;;;;;;17.83;10.65;;;;;;;;;;5050053;28;20020;-64
2023/08/29 00:06:24;;;;;;;18.30;10.98;;;;;;;;;;5051610;28;20433;-66
2023/08/29 00:08:50;;;;;;;18.65;10.38;;;;;;;;;;5051705;28;20056;-66
2023/08/29 00:11:16;;;;;;;17.85;11.10;;;;;;;;;;5051754;28;20473;-65
2023/08/29 00:13:43;;;;;;;18.52;10.90;;;;;;;;;;5051477;28;20474;-65
2023/08/29 00:16:12;;;;;;;18.98;10.88;;;;;;;;;;5051433;28;20071;-67
2023/08/29 00:18:38;;;;;;;17.65;11.13;;;;;;;;;;5051460;28;20021;-65
2023/08/29 00:21:04;;;;;;;18.45;10.90;;;;;;;;;;5050036;28;20361;-65
2023/08/29 00:23:30;;;;;;;18.65;11.10;;;;;;;;;;5051327;28;20027;-64
2023/08/29 00:25:56;;;;;;;19.75;11.32;;;;;;;;;;5051197;28;20025;-65
2023/08/29 00:28:23;;;;;;;21.60;11.65;;;;;;;;;;5051431;28;20033;-65
2023/08/29 00:30:49;;;;;;;19.02;11.68;;;;;;;;;;5051395;28;20496;-65
2023/08/29 00:33:15;;;;;;;19.98;11.60;;;;;;;;;;5051206;28;20021;-65
2023/08/29 00:35:41;;;;;;;18.88;12.35;;;;;;;;;;5051089;28;20100;-66
2023/08/29 00:38:07;;;;;;;18.85;11.45;;;;;;;;;;5050952;28;20040;-65
2023/08/29 00:40:33;;;;;;;19.50;12.13;;;;;;;;;;5050983;28;20053;-66
2023/08/29 00:42:59;;;;;;;22.83;12.27;;;;;;;;;;5051233;28;20047;-65
2023/08/29 00:45:26;;;;;;;20.55;12.32;;;;;;;;;;5070702;28;20032;-65
2023/08/29 00:47:52;;;;;;;16.98;11.57;;;;;;;;;;5070361;28;20067;-66
2023/08/29 00:50:19;;;;;;;19.17;12.02;;;;;;;;;;5070745;28;20070;-65
2023/08/29 00:52:45;;;;;;;21.33;12.10;;;;;;;;;;5070939;28;20024;-65
2023/08/29 00:55:11;;;;;;;22.38;12.77;;;;;;;;;;5070298;28;20025;-66
2023/08/29 00:57:37;;;;;;;19.95;12.02;;;;;;;;;;5052468;28;20032;-65
2023/08/29 01:00:03;;;;;;;19.77;12.15;;;;;;;;;;5070660;28;20039;-65
2023/08/29 01:02:29;;;;;;;19.15;12.43;;;;;;;;;;5070440;28;20150;-65
2023/08/29 01:04:55;;;;;;;17.92;11.30;;;;;;;;;;5052388;28;20025;-66
2023/08/29 01:07:21;;;;;;;20.88;12.80;;;;;;;;;;5070919;28;20595;-66
2023/08/29 01:09:47;;;;;;;17.75;11.40;;;;;;;;;;5070547;28;20024;-65
2023/08/29 01:12:17;;;;;;;20.90;12.55;;;;;;;;;;5070684;28;20028;-65
2023/08/29 01:14:43;;;;;;;19.50;12.90;;;;;;;;;;5070406;28;20424;-65
2023/08/29 01:17:21;;;;;;;19.83;12.57;;;;;;;;;;5070393;28;20025;-65
2023/08/29 01:19:51;;;;;;;20.75;12.95;;;;;;;;;;5070418;28;20463;-64
2023/08/29 01:22:27;;;;;;;20.85;12.05;;;;;;;;;;5052497;28;20119;-65
2023/08/29 01:25:13;;;;;;;19.83;12.50;;;;;;;;;;5052241;28;20449;-64
2023/08/29 01:27:39;;;;;;;22.05;12.63;;;;;;;;;;5070473;28;20039;-65
2023/08/29 01:30:06;;;;;;;22.65;13.02;;;;;;;;;;5070379;28;20462;-65
2023/08/29 01:32:32;;;;;;;20.05;12.80;;;;;;;;;;5070344;28;20477;-64
2023/08/29 01:34:58;;;;;;;20.60;13.07;;;;;;;;;;5070202;28;20115;-65
2023/08/29 01:37:24;;;;;;;19.73;12.18;;;;;;;;;;5070419;28;20029;-65
2023/08/29 01:39:50;;;;;;;19.75;12.88;;;;;;;;;;5070308;28;20032;-65
2023/08/29 01:42:16;;;;;;;17.33;11.80;;;;;;;;;;5070266;28;20025;-65
2023/08/29 01:44:42;;;;;;;20.08;13.38;;;;;;;;;;5051964;28;20408;-65
2023/08/29 01:47:08;;;;;;;21.55;12.55;;;;;;;;;;5052285;28;20067;-63
2023/08/29 01:49:35;;;;;;;20.15;12.98;;;;;;;;;;5069935;28;20512;-65
2023/08/29 01:52:01;;;;;;;20.70;12.38;;;;;;;;;;5070154;28;20143;-65
2023/08/29 01:54:27;;;;;;;19.00;12.20;;;;;;;;;;5069588;28;20025;-65
2023/08/29 01:56:55;;;;;;;20.42;11.95;;;;;;;;;;5069964;28;20027;-65
2023/08/29 01:59:22;;;;;;;20.60;12.52;;;;;;;;;;5072854;28;20029;-65
2023/08/29 02:01:48;;;;;;;19.42;12.88;;;;;;;;;;5056057;28;20030;-66
2023/08/29 02:04:14;;;;;;;19.88;13.00;;;;;;;;;;5074012;28;20144;-66
2023/08/29 02:06:40;;;;;;;19.98;12.05;;;;;;;;;;5074025;28;20056;-65
2023/08/29 02:09:06;;;;;;;19.92;12.38;;;;;;;;;;5074038;28;20036;-65
2023/08/29 02:11:32;;;;;;;20.38;12.55;;;;;;;;;;5073896;28;20404;-65
2023/08/29 02:13:58;;;;;;;19.88;12.95;;;;;;;;;;5073513;28;20024;-65
2023/08/29 02:16:24;;;;;;;19.75;12.20;;;;;;;;;;5073547;28;20471;-66
2023/08/29 02:18:53;;;;;;;21.23;12.90;;;;;;;;;;5073566;28;20024;-65
2023/08/29 02:21:19;;;;;;;19.38;12.68;;;;;;;;;;5073519;28;20016;-65
2023/08/29 02:23:46;;;;;;;19.85;12.98;;;;;;;;;;5073351;28;20062;-66
2023/08/29 02:26:12;;;;;;;20.23;12.43;;;;;;;;;;5073171;28;20092;-65
2023/08/29 02:28:39;;;;;;;20.25;13.30;;;;;;;;;;5073475;28;20093;-65
2023/08/29 02:31:08;;;;;;;20.20;12.32;;;;;;;;;;5073238;28;20353;-65
2023/08/29 02:33:35;;;;;;;17.92;12.07;;;;;;;;;;5073225;28;20477;-65
2023/08/29 02:36:04;;;;;;;22.60;13.68;;;;;;;;;;5054977;28;20121;-65
2023/08/29 02:38:30;;;;;;;22.17;12.50;;;;;;;;;;5073057;28;20016;-65
2023/08/29 02:40:56;;;;;;;19.05;12.90;;;;;;;;;;5073138;28;20033;-65
2023/08/29 02:43:22;;;;;;;22.08;13.27;;;;;;;;;;5054921;28;20048;-65
2023/08/29 02:45:50;;;;;;;18.90;12.05;;;;;;;;;;5073049;28;20504;-66
2023/08/29 02:48:16;;;;;;;19.50;13.20;;;;;;;;;;5072864;28;20378;-65
2023/08/29 02:50:42;;;;;;;19.20;12.13;;;;;;;;;;5072906;28;20033;-66
2023/08/29 02:53:08;;;;;;;19.98;11.82;;;;;;;;;;5073099;28;20058;-65
2023/08/29 02:55:34;;;;;;;18.58;12.48;;;;;;;;;;5072782;28;20051;-65
2023/08/29 02:58:00;;;;;;;19.42;13.00;;;;;;;;;;5054883;28;20024;-65
2023/08/29 03:00:27;;;;;;;21.00;12.10;;;;;;;;;;5055109;28;20042;-64
2023/08/29 03:02:53;;;;;;;18.20;12.50;;;;;;;;;;5072741;28;20476;-64
2023/08/29 03:05:19;;;;;;;18.90;12.30;;;;;;;;;;5054677;28;20036;-66
2023/08/29 03:07:45;;;;;;;19.75;12.43;;;;;;;;;;5072844;28;20516;-66
2023/08/29 03:10:11;;;;;;;21.52;13.50;;;;;;;;;;5072403;28;20036;-65
2023/08/29 03:12:37;;;;;;;21.17;13.13;;;;;;;;;;5072693;28;20028;-64
2023/08/29 03:15:03;;;;;;;18.67;12.27;;;;;;;;;;5054640;28;20032;-66
2023/08/29 03:17:29;;;;;;;19.50;12.88;;;;;;;;;;5073408;28;20035;-66
2023/08/29 03:19:55;;;;;;;19.00;12.70;;;;;;;;;;5073435;28;20512;-64
2023/08/29 03:22:21;;;;;;;21.35;12.73;;;;;;;;;;5073228;28;20024;-66
2023/08/29 03:24:47;;;;;;;20.33;13.45;;;;;;;;;;5072917;28;20044;-66
2023/08/29 03:27:14;;;;;;;18.85;12.70;;;;;;;;;;5055723;28;20061;-64
2023/08/29 03:29:40;;;;;;;19.83;12.57;;;;;;;;;;5055271;28;20028;-66
2023/08/29 03:32:06;;;;;;;19.63;13.07;;;;;;;;;;5072905;28;20388;-66
2023/08/29 03:34:33;;;;;;;21.65;13.82;;;;;;;;;;5072722;28;20024;-65
2023/08/29 03:36:59;;;;;;;20.05;13.02;;;;;;;;;;5054452;28;20113;-66
2023/08/29 03:39:25;;;;;;;20.92;13.13;;;;;;;;;;5072154;28;20074;-66
2023/08/29 03:41:51;;;;;;;20.95;13.13;;;;;;;;;;5054542;28;20043;-66
2023/08/29 03:44:17;;;;;;;22.20;13.50;;;;;;;;;;5053961;28;20538;-66
2023/08/29 03:46:43;;;;;;;19.70;12.95;;;;;;;;;;5072113;28;20040;-65
2023/08/29 03:49:09;;;;;;;21.40;13.15;;;;;;;;;;5054166;28;20070;-66
2023/08/29 03:51:35;;;;;;;21.80;14.40;;;;;;;;;;5072097;28;20076;-66
2023/08/29 03:54:01;;;;;;;23.23;13.85;;;;;;;;;;5071548;28;20028;-66
2023/08/29 03:56:27;;;;;;;21.83;14.63;;;;;;;;;;5071747;28;20590;-66
2023/08/29 03:58:53;;;;;;;22.48;13.98;;;;;;;;;;5072742;28;20054;-66
2023/08/29 04:01:19;;;;;;;21.85;14.40;;;;;;;;;;5053543;28;20484;-66
2023/08/29 04:03:45;;;;;;;22.83;14.50;;;;;;;;;;5053914;28;20102;-66
2023/08/29 04:06:11;;;;;;;20.63;15.10;;;;;;;;;;5072175;28;20099;-66
2023/08/29 04:08:37;;;;;;;20.85;14.05;;;;;;;;;;5071563;28;20468;-66
2023/08/29 04:11:04;;;;;;;22.42;15.43;;;;;;;;;;5071552;28;20098;-66
2023/08/29 04:13:30;;;;;;;24.15;15.82;;;;;;;;;;5071502;28;20557;-66
2023/08/29 04:16:00;;;;;;;20.65;14.35;;;;;;;;;;5053135;28;20036;-66
2023/08/29 04:18:26;;;;;;;21.52;15.43;;;;;;;;;;5053259;28;20032;-66
2023/08/29 04:20:52;;;;;;;20.00;13.73;;;;;;;;;;5070588;28;20362;-66
2023/08/29 04:23:19;;;;;;;20.77;14.10;;;;;;;;;;5053117;28;20032;-66
2023/08/29 04:25:45;;;;;;;23.67;15.52;;;;;;;;;;5053096;28;20054;-62
2023/08/29 04:28:12;;;;;;;23.02;16.20;;;;;;;;;;5071097;28;20115;-65
2023/08/29 04:30:38;;;;;;;21.15;14.52;;;;;;;;;;5071284;28;20024;-66
2023/08/29 04:33:04;;;;;;;23.38;15.23;;;;;;;;;;5070969;28;20059;-66
2023/08/29 04:35:30;;;;;;;24.05;16.52;;;;;;;;;;5070857;28;20032;-66
2023/08/29 04:37:56;;;;;;;25.60;17.50;;;;;;;;;;5071336;28;20028;-66
2023/08/29 04:40:22;;;;;;;22.00;15.57;;;;;;;;;;5070731;28;20066;-65
2023/08/29 04:42:48;;;;;;;22.83;16.23;;;;;;;;;;5070937;28;20388;-66
2023/08/29 04:45:14;;;;;;;21.38;14.70;;;;;;;;;;5070375;28;20044;-66
2023/08/29 04:47:40;;;;;;;24.30;16.77;;;;;;;;;;5070612;28;20024;-66
2023/08/29 04:50:07;;;;;;;23.52;17.15;;;;;;;;;;5070625;28;20027;-66
2023/08/29 04:52:34;;;;;;;22.65;15.23;;;;;;;;;;5070621;28;20374;-66
2023/08/29 04:55:00;;;;;;;27.08;17.35;;;;;;;;;;5070146;28;20028;-66
2023/08/29 04:57:26;;;;;;;22.73;16.73;;;;;;;;;;5070329;28;20528;-66
2023/08/29 04:59:52;;;;;;;22.80;16.65;;;;;;;;;;5070961;28;20021;-66
2023/08/29 05:02:18;;;;;;;22.75;16.33;;;;;;;;;;5070398;28;20056;-67
2023/08/29 05:04:45;;;;;;;24.00;17.17;;;;;;;;;;5052660;28;20025;-66
2023/08/29 05:07:11;;;;;;;24.13;16.90;;;;;;;;;;5052713;28;20112;-65
2023/08/29 05:09:37;;;;;;;23.70;15.95;;;;;;;;;;5070472;28;20068;-66
2023/08/29 05:12:04;;;;;;;24.33;16.50;;;;;;;;;;5070466;28;20069;-66
2023/08/29 05:14:30;;;;;;;24.38;16.88;;;;;;;;;;5070201;28;20072;-66
2023/08/29 05:16:56;;;;;;;25.40;17.17;;;;;;;;;;5065654;28;20354;-64
2023/08/29 05:19:23;;;;;;;24.17;16.55;;;;;;;;;;5064699;28;20380;-66
2023/08/29 05:21:49;;;;;;;24.52;16.92;;;;;;;;;;5054555;28;20024;-66
2023/08/29 05:24:15;;;;;;;27.83;20.65;;;;;;;;;;5033746;28;20025;-66
2023/08/29 05:26:41;;;;;;;22.55;16.08;;;;;;;;;;5052717;28;20111;-64
2023/08/29 05:29:07;;;;;;;21.83;16.88;;;;;;;;;;5070997;28;20527;-65
2023/08/29 05:31:33;;;;;;;24.65;16.88;;;;;;;;;;5070982;28;20249;-66
2023/08/29 05:33:59;;;;;;;23.23;16.77;;;;;;;;;;5059299;28;20025;-66
2023/08/29 05:36:25;;;;;;;25.25;17.75;;;;;;;;;;5050814;28;20025;-66
2023/08/29 05:38:50;;;;;;;28.48;21.60;;;;;;;;;;5050367;28;20417;-66
2023/08/29 05:41:16;;;;;;;23.35;17.55;;;;;;;;;;5050167;28;20025;-66
2023/08/29 05:43:42;;;;;;;21.63;16.13;;;;;;;;;;5073346;22;20083;-58
2023/08/29 05:46:08;;;;;;;21.58;16.02;;;;;;;;;;5070262;28;20032;-57
2023/08/29 05:48:34;;;;;;;23.05;16.27;;;;;;;;;;5052285;28;20057;-58
2023/08/29 05:51:00;;;;;;;26.60;17.55;;;;;;;;;;5070425;28;20374;-58
2023/08/29 05:53:26;;;;;;;22.98;16.90;;;;;;;;;;5052202;28;20028;-56
2023/08/29 05:55:52;;;;;;;22.15;16.27;;;;;;;;;;5070126;28;20021;-55
2023/08/29 05:58:21;;;;;;;25.17;17.52;;;;;;;;;;5051897;28;20020;-57
2023/08/29 06:00:48;;;;;;;23.95;17.10;;;;;;;;;;5070246;28;20024;-58
2023/08/29 06:03:14;;;;;;;23.85;16.88;;;;;;;;;;5070902;28;20078;-57
2023/08/29 06:05:41;;;;;;;24.90;18.15;;;;;;;;;;5069652;28;20161;-57
2023/08/29 06:08:07;;;;;;;23.02;16.92;;;;;;;;;;5070190;28;20031;-56
2023/08/29 06:10:33;;;;;;;24.67;16.23;;;;;;;;;;5069887;28;20067;-57
2023/08/29 06:12:59;;;;;;;22.70;16.90;;;;;;;;;;5069783;28;20028;-58
2023/08/29 06:15:25;;;;;;;24.08;16.40;;;;;;;;;;5069475;28;20032;-58
2023/08/29 06:17:51;;;;;;;21.90;15.68;;;;;;;;;;5036184;28;20086;-56
2023/08/29 06:20:18;;;;;;;21.95;16.10;;;;;;;;;;5029872;28;20077;-57
2023/08/29 06:22:44;;;;;;;21.95;16.63;;;;;;;;;;5011942;28;20032;-56
2023/08/29 06:25:10;;;;;;;22.55;16.55;;;;;;;;;;5029650;28;20026;-55
2023/08/29 06:27:36;;;;;;;23.90;16.75;;;;;;;;;;5030080;28;20029;-58
2023/08/29 06:30:03;;;;;;;23.25;16.55;;;;;;;;;;5029959;28;20064;-56
2023/08/29 06:32:29;;;;;;;24.23;16.30;;;;;;;;;;5012308;28;20030;-57
2023/08/29 06:34:55;;;;;;;24.60;15.63;;;;;;;;;;5029843;28;20466;-56
2023/08/29 06:37:21;;;;;;;22.17;16.05;;;;;;;;;;5029814;28;20025;-56
2023/08/29 06:39:48;;;;;;;23.42;16.73;;;;;;;;;;5030273;28;20022;-59
2023/08/29 06:42:14;;;;;;;22.00;15.55;;;;;;;;;;5044837;28;20339;-50
2023/08/29 06:44:40;;;;;;;22.75;15.80;;;;;;;;;;5051223;28;20032;-55
2023/08/29 06:47:06;;;;;;;23.42;17.63;;;;;;;;;;5052454;28;20040;-57
2023/08/29 06:49:32;;;;;;;22.67;16.23;;;;;;;;;;5051774;28;20025;-58
2023/08/29 06:51:58;;;;;;;26.48;17.25;;;;;;;;;;5057279;28;20404;-54
2023/08/29 06:54:24;;;;;;;24.48;16.52;;;;;;;;;;5053677;28;20085;-57
2023/08/29 06:56:50;;;;;;;23.65;16.85;;;;;;;;;;5053678;28;20128;-56
2023/08/29 06:59:16;;;;;;;24.55;15.95;;;;;;;;;;5062229;28;20024;-60
2023/08/29 07:01:42;;;;;;;22.55;16.27;;;;;;;;;;5073639;28;20054;-57
2023/08/29 07:04:11;;;;;;;23.40;15.68;;;;;;;;;;5073325;28;20020;-58
2023/08/29 07:06:39;;;;;;;22.05;16.02;;;;;;;;;;5073986;28;20036;-56
2023/08/29 07:09:05;;;;;;;21.05;15.60;;;;;;;;;;5073397;28;20453;-53
2023/08/29 07:11:31;;;;;;;22.83;16.48;;;;;;;;;;5073559;28;20024;-58
2023/08/29 07:13:57;;;;;;;23.92;16.98;;;;;;;;;;5073990;28;20416;-58
2023/08/29 07:16:23;;;;;;;24.33;16.90;;;;;;;;;;5066919;28;20021;-56
2023/08/29 07:18:49;;;;;;;25.08;16.63;;;;;;;;;;5034378;28;20076;-55
2023/08/29 07:21:16;;;;;;;22.77;15.88;;;;;;;;;;5033881;28;20021;-57
2023/08/29 07:23:42;;;;;;;22.88;16.13;;;;;;;;;;5034229;28;20037;-55
2023/08/29 07:26:08;;;;;;;24.10;16.33;;;;;;;;;;5034168;28;20036;-59
2023/08/29 07:28:35;;;;;;;22.05;16.17;;;;;;;;;;5016340;28;20022;-59
2023/08/29 07:31:01;;;;;;;22.23;16.10;;;;;;;;;;5016064;28;20029;-58
2023/08/29 07:33:27;;;;;;;23.58;15.95;;;;;;;;;;5033782;28;20174;-58
2023/08/29 07:35:53;;;;;;;23.30;15.35;;;;;;;;;;5033463;28;20026;-61
2023/08/29 07:38:20;;;;;;;27.38;16.00;;;;;;;;;;5033010;28;20104;-57
2023/08/29 07:40:46;;;;;;;25.88;16.27;;;;;;;;;;5033289;28;20159;-58
2023/08/29 07:43:13;;;;;;;21.58;15.48;;;;;;;;;;5033067;28;20026;-59
2023/08/29 07:45:39;;;;;;;23.02;14.95;;;;;;;;;;5032489;28;20040;-59
2023/08/29 07:48:05;;;;;;;21.67;15.93;;;;;;;;;;5033135;28;20528;-60
2023/08/29 07:50:32;;;;;;;21.83;15.77;;;;;;;;;;5032457;28;20065;-57
2023/08/29 07:52:58;;;;;;;25.40;15.80;;;;;;;;;;5032701;28;20041;-53
2023/08/29 07:55:24;;;;;;;24.88;16.30;;;;;;;;;;5031635;28;20029;-58
2023/08/29 07:57:50;;;;;;;27.33;14.82;;;;;;;;;;5032485;28;20033;-58
2023/08/29 08:00:17;;;;;;;25.20;15.80;;;;;;;;;;5032558;28;20045;-57
2023/08/29 08:02:43;;;;;;;22.55;15.43;;;;;;;;;;5032010;28;20101;-59
2023/08/29 08:05:12;;;;;;;23.15;15.63;;;;;;;;;;5032150;28;20052;-56
2023/08/29 08:07:39;;;;;;;24.30;16.73;;;;;;;;;;5062682;28;20060;-58
2023/08/29 08:10:05;;;;;;;22.58;16.80;;;;;;;;;;5071895;28;20107;-58
2023/08/29 08:12:32;;;;;;;22.05;16.45;;;;;;;;;;5072047;28;20028;-59
2023/08/29 08:14:58;;;;;;;22.38;16.60;;;;;;;;;;5072090;28;20043;-57
2023/08/29 08:17:24;;;;;;;20.42;14.10;;;;;;;;;;5047875;28;20430;-54
2023/08/29 08:19:50;;;;;;;21.23;14.75;;;;;;;;;;5032102;28;20121;-59
2023/08/29 08:22:18;;;;;;;20.38;15.50;;;;;;;;;;5032023;28;20099;-57
2023/08/29 08:24:44;;;;;;;21.25;14.40;;;;;;;;;;5031811;28;20037;-59
2023/08/29 08:27:10;;;;;;;22.00;14.60;;;;;;;;;;5031713;28;20034;-58
2023/08/29 08:29:36;;;;;;;20.95;14.57;;;;;;;;;;5031685;28;20029;-58
2023/08/29 08:32:02;;;;;;;23.45;14.25;;;;;;;;;;5031207;28;20033;-57
2023/08/29 08:34:28;;;;;;;21.70;13.43;;;;;;;;;;5013549;28;20129;-59
2023/08/29 08:36:54;;;;;;;20.55;13.93;;;;;;;;;;5031854;28;20104;-56
2023/08/29 08:39:22;;;;;;;25.33;13.35;;;;;;;;;;5032033;28;20541;-58
2023/08/29 08:41:48;;;;;;;21.20;13.82;;;;;;;;;;5031939;28;20374;-56
2023/08/29 08:44:15;;;;;;;19.67;13.70;;;;;;;;;;5013409;28;20052;-53
2023/08/29 08:46:42;;;;;;;19.45;13.57;;;;;;;;;;5031738;28;20029;-57
2023/08/29 08:49:08;;;;;;;19.67;13.60;;;;;;;;;;5038357;28;20033;-58
2023/08/29 08:51:37;;;;;;;19.13;13.82;;;;;;;;;;5041625;28;20025;-58
2023/08/29 08:54:04;;;;;;;17.67;13.13;;;;;;;;;;5034307;28;20501;-57
2023/08/29 08:56:31;;;;;;;18.33;13.27;;;;;;;;;;5031530;28;20486;-55
2023/08/29 08:58:57;;;;;;;19.02;13.30;;;;;;;;;;5031539;28;20095;-54
2023/08/29 09:01:23;;;;;;;20.80;14.32;;;;;;;;;;5031508;28;20025;-57
2023/08/29 09:03:50;;;;;;;20.52;14.15;;;;;;;;;;5031512;28;20353;-57
2023/08/29 09:06:16;;;;;;;17.35;12.85;;;;;;;;;;5013625;28;20569;-62
2023/08/29 09:08:42;;;;;;;17.58;12.60;;;;;;;;;;5031104;28;20473;-52
2023/08/29 09:11:08;;;;;;;18.80;13.38;;;;;;;;;;5031423;28;20048;-53
2023/08/29 09:13:34;;;;;;;20.63;13.82;;;;;;;;;;5031330;28;20435;-52
2023/08/29 09:16:01;;;;;;;18.13;13.35;;;;;;;;;;5031092;28;20029;-52
2023/08/29 09:18:31;;;;;;;17.98;13.68;;;;;;;;;;5047673;28;20044;-58
2023/08/29 09:21:00;;;;;;;17.42;13.18;;;;;;;;;;5053845;28;20422;-55
2023/08/29 09:23:26;;;;;;;20.38;12.63;;;;;;;;;;5051212;28;20017;-56
2023/08/29 09:25:54;;;;;;;18.17;12.68;;;;;;;;;;5056047;28;20029;-59
2023/08/29 09:28:20;;;;;;;17.67;12.35;;;;;;;;;;5059555;28;20138;-55
2023/08/29 09:30:47;;;;;;;16.73;12.68;;;;;;;;;;5043135;28;20036;-58
2023/08/29 09:33:13;;;;;;;16.70;12.55;;;;;;;;;;5053117;28;20033;-55
2023/08/29 09:35:39;;;;;;;18.55;12.77;;;;;;;;;;5032434;28;20052;-57
2023/08/29 09:38:05;;;;;;;17.05;12.30;;;;;;;;;;5032770;28;20029;-54
2023/08/29 09:40:31;;;;;;;17.23;12.15;;;;;;;;;;5053349;28;20488;-55
2023/08/29 09:43:02;;;;;;;16.83;12.35;;;;;;;;;;5050838;28;20025;-59
2023/08/29 09:45:32;;;;;;;16.15;12.05;;;;;;;;;;5049963;28;20048;-58
2023/08/29 09:48:02;;;;;;;17.10;12.38;;;;;;;;;;5050540;28;20103;-53
2023/08/29 09:50:29;;;;;;;17.25;11.75;;;;;;;;;;5049965;28;20021;-55
2023/08/29 09:52:57;;;;;;;17.27;12.10;;;;;;;;;;5031994;28;20052;-55
2023/08/29 09:55:24;;;;;;;17.17;11.65;;;;;;;;;;5049858;28;20405;-53
2023/08/29 09:57:51;;;;;;;16.45;11.90;;;;;;;;;;5049571;28;20120;-57
2023/08/29 10:00:18;;;;;;;16.05;11.90;;;;;;;;;;5049607;28;20108;-55
2023/08/29 10:02:47;;;;;;;18.63;13.15;;;;;;;;;;5049418;28;20477;-56
2023/08/29 10:05:13;;;;;;;17.85;12.10;;;;;;;;;;5049407;28;20033;-57
2023/08/29 10:07:50;;;;;;;16.75;12.30;;;;;;;;;;5049797;28;20029;-57
2023/08/29 10:10:16;;;;;;;20.42;12.73;;;;;;;;;;5049361;28;20498;-57
2023/08/29 10:12:43;;;;;;;17.92;12.00;;;;;;;;;;5049703;28;20040;-58
2023/08/29 10:15:10;;;;;;;20.35;12.93;;;;;;;;;;5049152;28;20112;-57
2023/08/29 10:17:36;;;;;;;16.83;11.85;;;;;;;;;;5049021;28;20078;-55
2023/08/29 10:20:12;;;;;;;16.10;11.65;;;;;;;;;;5044099;28;20037;-57
2023/08/29 10:22:39;;;;;;;16.35;11.52;;;;;;;;;;5047862;28;20100;-54
2023/08/29 10:25:05;;;;;;;16.23;11.23;;;;;;;;;;5052520;28;20028;-58
2023/08/29 10:27:31;;;;;;;17.05;12.20;;;;;;;;;;5052729;28;20109;-55
2023/08/29 10:29:58;;;;;;;17.38;12.00;;;;;;;;;;5052764;28;20103;-56
2023/08/29 10:32:25;;;;;;;17.30;11.18;;;;;;;;;;5034603;28;20033;-56
2023/08/29 10:34:52;;;;;;;16.67;11.33;;;;;;;;;;5052447;28;20426;-57
2023/08/29 10:37:18;;;;;;;17.90;12.20;;;;;;;;;;5052852;28;20641;-55
2023/08/29 10:39:44;;;;;;;16.55;11.38;;;;;;;;;;5052486;28;20035;-58
2023/08/29 10:42:13;;;;;;;16.50;11.38;;;;;;;;;;5052742;28;20505;-58
2023/08/29 10:44:40;;;;;;;16.73;12.70;;;;;;;;;;4997439;28;1069351;-58
2023/08/29 10:47:27;;;;;;;18.25;12.80;;;;;;;;;;5053613;28;20025;-55
2023/08/29 10:49:58;;;;;;;17.20;12.23;;;;;;;;;;5053811;28;20025;-57
2023/08/29 10:52:24;;;;;;;16.00;11.73;;;;;;;;;;5053989;28;20111;-54
2023/08/29 10:55:02;;;;;;;16.15;12.00;;;;;;;;;;5053619;28;20298;-53
2023/08/29 10:57:29;;;;;;;17.27;12.60;;;;;;;;;;5035828;28;20052;-54
2023/08/29 10:59:55;;;;;;;16.75;12.82;;;;;;;;;;5054163;28;20120;-58
2023/08/29 11:02:29;;;;;;;16.98;13.60;;;;;;;;;;5053725;28;20496;-57
2023/08/29 11:05:04;;;;;;;16.40;12.88;;;;;;;;;;5053522;28;20021;-55
2023/08/29 11:07:30;;;;;;;16.83;13.10;;;;;;;;;;5035642;28;20029;-55
2023/08/29 11:10:15;;;;;;;18.02;14.00;;;;;;;;;;5053544;28;20032;-55
2023/08/29 11:13:00;;;;;;;17.77;13.38;;;;;;;;;;5053552;28;20075;-51
2023/08/29 11:15:44;;;;;;;16.42;13.57;;;;;;;;;;5052874;28;20086;-56
2023/08/29 11:18:22;;;;;;;15.70;13.10;;;;;;;;;;5053313;28;20031;-56
2023/08/29 11:20:48;;;;;;;16.05;12.40;;;;;;;;;;5053097;28;20092;-55
2023/08/29 11:23:14;;;;;;;17.23;12.75;;;;;;;;;;5053848;28;20087;-54
2023/08/29 11:25:40;;;;;;;16.08;12.77;;;;;;;;;;5053087;28;20055;-56
2023/08/29 11:28:06;;;;;;;16.00;12.38;;;;;;;;;;5052916;28;20032;-56
2023/08/29 11:30:33;;;;;;;17.55;12.80;;;;;;;;;;5053487;28;20029;-53
2023/08/29 11:32:59;;;;;;;17.75;12.80;;;;;;;;;;5053171;28;20029;-53
2023/08/29 11:35:28;;;;;;;16.65;12.48;;;;;;;;;;5053066;28;20041;-55
2023/08/29 11:37:54;;;;;;;17.88;12.70;;;;;;;;;;5052963;28;20134;-57
2023/08/29 11:40:21;;;;;;;18.10;12.75;;;;;;;;;;5050388;28;20025;-54
2023/08/29 11:42:47;;;;;;;17.15;12.93;;;;;;;;;;5044684;28;20021;-54
2023/08/29 11:45:14;;;;;;;17.92;13.18;;;;;;;;;;5032817;28;20035;-54
2023/08/29 11:47:43;;;;;;;16.98;12.35;;;;;;;;;;5033306;28;20029;-55
2023/08/29 11:50:11;;;;;;;17.35;11.90;;;;;;;;;;5052379;28;20024;-53
2023/08/29 11:52:37;;;;;;;16.40;12.05;;;;;;;;;;5052652;28;20020;-57
2023/08/29 11:55:04;;;;;;;15.88;12.48;;;;;;;;;;5059193;28;20052;-57
2023/08/29 11:57:31;;;;;;;17.63;12.50;;;;;;;;;;5072326;28;20047;-57
2023/08/29 11:59:57;;;;;;;16.33;12.43;;;;;;;;;;5068869;28;20029;-54
2023/08/29 12:02:23;;;;;;;17.48;12.20;;;;;;;;;;5052280;28;20037;-55
2023/08/29 12:04:56;;;;;;;18.58;12.13;;;;;;;;;;5051763;28;20052;-54
2023/08/29 12:07:22;;;;;;;16.92;12.55;;;;;;;;;;5052290;28;20041;-57
2023/08/29 12:09:49;;;;;;;17.75;12.70;;;;;;;;;;5052273;28;20028;-56
2023/08/29 12:12:32;;;;;;;16.90;12.80;;;;;;;;;;5052532;28;20036;-55
2023/08/29 12:14:58;;;;;;;16.95;12.50;;;;;;;;;;5052162;28;20339;-58
2023/08/29 12:17:33;;;;;;;18.42;12.80;;;;;;;;;;5034127;28;20032;-54
2023/08/29 12:19:59;;;;;;;17.00;13.30;;;;;;;;;;5052094;28;20235;-57
2023/08/29 12:22:32;;;;;;;16.58;12.88;;;;;;;;;;5052135;28;20084;-59
2023/08/29 12:25:01;;;;;;;16.40;13.10;;;;;;;;;;5041031;28;20450;-59
2023/08/29 12:27:27;;;;;;;15.65;12.77;;;;;;;;;;5045615;28;20481;-57
2023/08/29 12:29:53;;;;;;;16.73;12.05;;;;;;;;;;5043848;28;20035;-58
2023/08/29 12:32:25;;;;;;;15.88;11.93;;;;;;;;;;5054747;28;20055;-53
2023/08/29 12:34:51;;;;;;;16.52;12.50;;;;;;;;;;5049368;28;20029;-58
2023/08/29 12:37:17;;;;;;;16.75;12.43;;;;;;;;;;5066522;28;20476;-57
2023/08/29 12:39:45;;;;;;;17.60;12.82;;;;;;;;;;5038325;28;20025;-54
2023/08/29 12:42:11;;;;;;;16.70;12.50;;;;;;;;;;5062491;28;20020;-57
2023/08/29 12:44:44;;;;;;;35.15;18.30;;;;;;;;;;4956441;28;10001253;-59
2023/08/29 12:47:10;;;;;;;15.75;11.82;;;;;;;;;;5039534;28;20242;-54
2023/08/29 12:49:36;;;;;;;16.45;12.25;;;;;;;;;;5036030;28;20551;-59
2023/08/29 12:52:04;;;;;;;15.93;12.18;;;;;;;;;;5048340;28;20111;-58
2023/08/29 12:54:30;;;;;;;16.95;12.18;;;;;;;;;;5045507;28;20087;-57
2023/08/29 12:56:56;;;;;;;15.85;12.15;;;;;;;;;;5010770;28;20473;-55
2023/08/29 12:59:23;;;;;;;16.85;11.68;;;;;;;;;;5028467;28;20030;-58
2023/08/29 13:01:49;;;;;;;15.20;11.60;;;;;;;;;;5028053;28;20033;-56
2023/08/29 13:04:15;;;;;;;16.08;12.10;;;;;;;;;;5037338;28;20665;-59
2023/08/29 13:06:41;;;;;;;16.10;11.98;;;;;;;;;;5041123;28;20718;-59
2023/08/29 13:09:07;;;;;;;15.65;11.93;;;;;;;;;;5050381;28;20036;-61
2023/08/29 13:11:33;;;;;;;16.52;12.48;;;;;;;;;;5048468;28;20378;-59
2023/08/29 13:13:59;;;;;;;15.25;11.95;;;;;;;;;;5047910;28;20029;-59
2023/08/29 13:16:32;;;;;;;15.75;12.43;;;;;;;;;;5050825;28;20059;-59
2023/08/29 13:18:58;;;;;;;15.55;12.25;;;;;;;;;;5032122;28;20025;-60
2023/08/29 13:21:24;;;;;;;16.48;12.00;;;;;;;;;;5017092;28;20048;-59
2023/08/29 13:23:50;;;;;;;17.15;12.18;;;;;;;;;;5011867;28;20082;-62
2023/08/29 13:26:16;;;;;;;15.10;11.98;;;;;;;;;;5023621;28;20447;-58
2023/08/29 13:28:42;;;;;;;15.10;12.07;;;;;;;;;;5030750;28;20068;-59
2023/08/29 13:31:08;;;;;;;17.30;12.55;;;;;;;;;;5036033;28;20086;-60
2023/08/29 13:33:34;;;;;;;18.02;12.73;;;;;;;;;;5050255;28;20629;-55
2023/08/29 13:36:01;;;;;;;16.30;12.90;;;;;;;;;;5033633;28;20457;-58
2023/08/29 13:38:27;;;;;;;15.27;11.98;;;;;;;;;;5030338;28;20045;-63
2023/08/29 13:40:53;;;;;;;15.68;12.00;;;;;;;;;;5034846;28;20147;-59
2023/08/29 13:43:19;;;;;;;17.27;12.30;;;;;;;;;;5043784;28;20491;-57
2023/08/29 13:45:45;;;;;;;15.32;12.13;;;;;;;;;;5033332;28;20061;-58
2023/08/29 13:48:11;;;;;;;16.58;12.48;;;;;;;;;;5028696;28;20025;-56
2023/08/29 13:50:37;;;;;;;16.02;12.10;;;;;;;;;;5035829;28;20021;-58
2023/08/29 13:53:03;;;;;;;15.40;12.50;;;;;;;;;;5029918;28;20037;-59
2023/08/29 13:55:30;;;;;;;16.38;12.95;;;;;;;;;;4680199;28;10000551;-59
2023/08/29 13:57:56;;;;;;;16.23;12.90;;;;;;;;;;5040339;28;20028;-54
2023/08/29 14:00:22;;;;;;;16.35;12.75;;;;;;;;;;5034657;28;20124;-55
2023/08/29 14:02:48;;;;;;;15.55;12.70;;;;;;;;;;5027936;28;20494;-52
2023/08/29 14:05:14;;;;;;;15.70;13.10;;;;;;;;;;5028576;28;20037;-56
2023/08/29 14:07:40;;;;;;;15.60;13.05;;;;;;;;;;5027340;28;20148;-53
2023/08/29 14:10:07;;;;;;;15.73;12.82;;;;;;;;;;5027416;28;20137;-51
2023/08/29 14:12:33;;;;;;;17.40;13.38;;;;;;;;;;5034036;28;20606;-53
2023/08/29 14:14:59;;;;;;;16.55;13.38;;;;;;;;;;5021262;28;20124;-53